Time;durP1;ratioP1;P1;durP2;ratioP2;P2;SDS_P1;SDS_P2;PMS_P1;PMS_P2;Temp;Humidity;BMP_temperature;BMP_pressure;BME280_temperature;BME280_humidity;BME280_pressure;Samples;Min_cycle;Max_cycle;Signal;HPM_P1;HPM_P2
2021/10/07 03:47:24;;;;;;;3.36;1.00;;;;;;;8.96;95.70;100168.41;2148807;72;20306;-79
2021/10/07 03:50:27;;;;;;;2.55;0.98;;;;;;;9.01;95.58;100164.19;1985337;82;20278;-81
2021/10/07 03:53:29;;;;;;;2.10;1.13;;;;;;;8.99;95.41;100173.66;1984811;82;20349;-81
2021/10/07 03:56:32;;;;;;;2.06;1.19;;;;;;;8.97;95.31;100169.28;1990372;82;20289;-81
2021/10/07 03:59:35;;;;;;;4.29;1.26;;;;;;;8.97;95.38;100171.88;1985927;82;20194;-82
2021/10/07 04:02:38;;;;;;;2.16;1.11;;;;;;;8.99;95.52;100173.66;1985781;79;35736;-82
2021/10/07 04:05:41;;;;;;;2.64;1.29;;;;;;;9.01;95.56;100177.16;1983960;82;20464;-80
2021/10/07 04:08:43;;;;;;;1.29;0.90;;;;;;;9.04;95.58;100173.72;1991467;82;20325;-80
2021/10/07 04:11:46;;;;;;;1.38;1.00;;;;;;;9.05;95.57;100178.91;1977512;82;20279;-81
2021/10/07 04:14:49;;;;;;;2.71;1.33;;;;;;;9.07;95.64;100182.41;1985133;82;20171;-80
2021/10/07 04:17:52;;;;;;;1.81;1.21;;;;;;;9.07;95.58;100192.75;1992105;80;34185;-81
2021/10/07 04:20:55;;;;;;;3.53;1.25;;;;;;;9.05;95.46;100191.88;1980983;82;20286;-81
2021/10/07 04:23:58;;;;;;;2.39;1.14;;;;;;;9.07;95.55;100189.31;1980201;82;20330;-81
2021/10/07 04:27:00;;;;;;;3.33;1.26;;;;;;;9.07;95.29;100187.59;1982815;82;20144;-81
2021/10/07 04:30:07;;;;;;;5.24;1.64;;;;;;;9.02;95.05;100189.25;1984560;82;20314;-81
2021/10/07 04:33:11;;;;;;;3.03;0.96;;;;;;;8.99;95.03;100194.38;1976169;82;20281;-80
2021/10/07 04:36:13;;;;;;;1.76;0.82;;;;;;;8.98;95.02;100199.56;1979852;82;20329;-80
2021/10/07 04:39:16;;;;;;;1.55;1.00;;;;;;;8.93;94.86;100189.09;1982633;82;20348;-80
2021/10/07 04:42:18;;;;;;;2.58;1.00;;;;;;;8.94;95.17;100189.97;1979104;82;20294;-80
2021/10/07 04:45:21;;;;;;;1.86;0.99;;;;;;;8.95;95.13;100191.69;1982450;82;20346;-81
2021/10/07 04:48:24;;;;;;;2.31;0.89;;;;;;;8.90;94.91;100204.59;1982334;82;20151;-80
2021/10/07 04:51:27;;;;;;;4.09;1.16;;;;;;;8.81;94.69;100199.28;1984606;82;20416;-80
2021/10/07 04:54:29;;;;;;;3.10;1.19;;;;;;;8.79;95.05;100201.81;1984639;82;20293;-80
2021/10/07 04:57:33;;;;;;;2.95;1.31;;;;;;;8.80;95.09;100197.56;1980838;82;20316;-81
2021/10/07 05:00:36;;;;;;;2.59;1.11;;;;;;;8.86;95.28;100202.81;1986955;82;20288;-82
2021/10/07 05:03:38;;;;;;;0.96;0.96;;;;;;;8.86;95.20;100196.75;1989681;82;20473;-81
2021/10/07 05:06:41;;;;;;;1.63;1.20;;;;;;;8.85;95.27;100201.06;1983955;82;20321;-80
2021/10/07 05:09:44;;;;;;;3.35;1.20;;;;;;;8.81;95.22;100201.00;1987087;82;20289;-80
2021/10/07 05:12:47;;;;;;;2.64;1.09;;;;;;;8.85;95.35;100205.38;1986895;82;20292;-81
2021/10/07 05:15:49;;;;;;;2.49;1.20;;;;;;;8.83;95.17;100210.53;1987643;82;20333;-81
2021/10/07 05:18:52;;;;;;;1.38;1.08;;;;;;;8.84;95.35;100204.50;1989807;82;20285;-81
2021/10/07 05:21:55;;;;;;;2.17;1.20;;;;;;;8.77;95.13;100208.69;1984326;82;20332;-80
2021/10/07 05:25:03;;;;;;;1.67;1.00;;;;;;;8.76;95.04;100226.81;1984732;82;20288;-80
2021/10/07 05:28:06;;;;;;;5.38;1.29;;;;;;;8.74;94.89;100228.50;1988955;82;20332;-80
2021/10/07 05:31:08;;;;;;;1.35;0.95;;;;;;;8.69;94.66;100228.44;1987590;82;20340;-81
2021/10/07 05:34:12;;;;;;;3.51;1.31;;;;;;;8.66;94.65;100235.28;1987750;82;20388;-82
2021/10/07 05:37:21;;;;;;;5.55;1.27;;;;;;;8.63;94.67;100232.66;1985824;82;20373;-82
2021/10/07 05:40:24;;;;;;;2.15;1.04;;;;;;;8.58;94.72;100229.97;1987731;82;21426;-83
2021/10/07 05:43:27;;;;;;;2.67;1.27;;;;;;;8.59;94.98;100233.41;1990673;82;20281;-83
2021/10/07 05:46:33;;;;;;;4.78;1.33;;;;;;;8.59;94.91;100236.88;1979436;82;20311;-83
2021/10/07 05:49:36;;;;;;;5.40;1.40;;;;;;;8.60;95.10;100235.16;1970546;82;20298;-82
2021/10/07 05:52:39;;;;;;;5.31;1.20;;;;;;;8.61;95.21;100231.72;1975753;82;20374;-83
2021/10/07 05:55:44;;;;;;;2.29;1.42;;;;;;;8.60;95.16;100228.25;1976231;82;20306;-82
2021/10/07 05:58:48;;;;;;;2.06;1.46;;;;;;;8.60;95.31;100224.81;1973505;82;20366;-83
2021/10/07 06:01:54;;;;;;;2.58;1.41;;;;;;;8.56;95.31;100223.00;1976757;83;20312;-82
2021/10/07 06:04:58;;;;;;;1.38;1.27;;;;;;;8.59;95.69;100221.34;1979230;82;20373;-82
2021/10/07 06:08:01;;;;;;;1.85;1.24;;;;;;;8.64;95.96;100234.38;1982045;82;20289;-83
2021/10/07 06:11:04;;;;;;;3.30;1.29;;;;;;;8.72;96.20;100236.25;1977222;82;20277;-82
2021/10/07 06:14:07;;;;;;;1.33;1.02;;;;;;;8.83;96.17;100243.34;1981333;82;20297;-83
2021/10/07 06:17:14;;;;;;;1.26;1.16;;;;;;;8.88;95.96;100249.44;1979989;82;20289;-83
2021/10/07 08:02:41;;;;;;;5.47;2.74;;;;;;;11.15;93.63;100332.72;2363244;67;20159;-81
2021/10/07 08:05:45;;;;;;;6.74;3.39;;;;;;;11.24;93.61;100329.31;2353250;68;20199;-83
2021/10/07 08:08:48;;;;;;;5.00;3.19;;;;;;;11.29;93.40;100338.00;2334727;68;20130;-81
2021/10/07 08:11:51;;;;;;;6.31;3.72;;;;;;;11.33;93.17;100345.88;2342239;68;20127;-81
2021/10/07 08:14:56;;;;;;;10.20;3.90;;;;;;;11.41;93.01;100341.59;2338477;68;20156;-81
2021/10/07 08:17:59;;;;;;;12.35;4.55;;;;;;;11.44;92.15;100339.00;2314475;66;42344;-82
2021/10/07 08:21:03;;;;;;;13.09;6.22;;;;;;;11.49;91.77;100333.84;2322230;69;20164;-82
2021/10/07 08:24:09;;;;;;;9.98;4.96;;;;;;;11.58;91.43;100341.72;2325209;69;20121;-81
2021/10/07 08:27:12;;;;;;;7.57;4.68;;;;;;;11.74;91.47;100338.34;2324099;69;20105;-81
2021/10/07 08:30:17;;;;;;;11.25;6.49;;;;;;;11.99;91.37;100348.91;2325699;69;20212;-82
2021/10/07 08:33:44;;;;;;;16.36;7.57;;;;;;;12.28;91.06;100349.94;2339590;69;20511;-82
2021/10/07 08:37:48;;;;;;;17.69;7.36;;;;;;;12.63;90.11;100355.25;2330616;68;20168;-81
2021/10/07 09:41:55;;;;;;;4.22;2.97;;;;;;;15.02;73.76;100361.78;2318588;69;20180;-81
2021/10/07 09:45:32;;;;;;;5.60;2.75;;;;;;;15.06;73.80;100358.25;2314597;69;20214;-80
2021/10/07 09:48:43;;;;;;;4.09;2.78;;;;;;;15.17;74.54;100352.09;2316776;69;20142;-81
2021/10/07 09:57:07;;;;;;;4.75;2.41;;;;;;;15.31;72.16;100350.22;2310741;69;20132;-81
2021/10/07 10:34:55;;;;;;;3.35;1.10;;;;;;;15.50;70.61;100353.56;2317288;69;20155;-80
2021/10/07 12:39:57;;;;;;;1.91;0.90;;;;;;;18.46;54.49;100322.88;2328983;68;20177;-81
2021/10/07 12:43:13;;;;;;;1.85;0.77;;;;;;;18.30;55.60;100325.81;2333417;68;20173;-79
2021/10/07 12:46:19;;;;;;;1.88;0.80;;;;;;;17.98;55.53;100330.88;2339007;68;20215;-80
2021/10/07 12:49:31;;;;;;;1.33;0.90;;;;;;;17.71;56.64;100322.63;2336824;68;20237;-80
2021/10/07 12:52:43;;;;;;;2.60;0.76;;;;;;;17.45;56.94;100332.69;2338841;68;20215;-81
2021/10/07 12:56:06;;;;;;;2.58;0.82;;;;;;;17.32;57.99;100334.66;2336739;68;20307;-80
2021/10/07 12:59:09;;;;;;;1.11;0.70;;;;;;;17.17;58.18;100325.28;2335829;68;20170;-80
2021/10/07 13:02:28;;;;;;;3.03;0.91;;;;;;;17.05;59.02;100330.72;2339451;65;25429;-80
2021/10/07 13:05:36;;;;;;;0.93;0.80;;;;;;;17.02;59.95;100322.88;2343275;68;20226;-80
2021/10/07 13:08:39;;;;;;;1.89;1.10;;;;;;;16.96;59.78;100333.50;2346087;68;20146;-79
2021/10/07 13:11:42;;;;;;;1.35;0.80;;;;;;;16.89;60.00;100327.47;2345693;68;20182;-80
2021/10/07 13:14:55;;;;;;;3.96;1.05;;;;;;;16.84;60.78;100325.78;2341536;68;20143;-80
2021/10/07 13:17:58;;;;;;;1.27;0.90;;;;;;;16.84;61.12;100331.03;2344188;66;40579;-80
2021/10/07 13:21:02;;;;;;;2.92;0.80;;;;;;;16.88;61.09;100336.25;2344980;68;20138;-80
2021/10/07 13:24:17;;;;;;;1.34;0.74;;;;;;;16.94;60.79;100331.78;2336555;68;20503;-80
2021/10/07 13:27:23;;;;;;;3.05;0.86;;;;;;;17.07;60.71;100333.34;2344036;68;20146;-80
2021/10/07 13:30:31;;;;;;;2.35;1.05;;;;;;;17.18;59.56;100329.63;2339194;68;22431;-80
2021/10/07 13:33:33;;;;;;;2.61;0.85;;;;;;;17.35;59.99;100334.59;2344734;68;20196;-80
2021/10/07 13:36:36;;;;;;;1.51;1.02;;;;;;;17.36;58.96;100327.59;2342096;68;20150;-80
2021/10/07 13:39:40;;;;;;;2.22;1.00;;;;;;;17.27;58.55;100326.00;2342153;68;20142;-80
2021/10/07 13:42:45;;;;;;;3.21;1.20;;;;;;;17.09;57.13;100328.94;2342964;68;20155;-80
2021/10/07 13:45:49;;;;;;;1.31;0.80;;;;;;;16.96;58.79;100330.00;2337532;66;60612;-80
2021/10/07 13:48:52;;;;;;;2.06;1.01;;;;;;;16.84;60.84;100331.03;2342335;68;20269;-80
2021/10/07 13:51:55;;;;;;;0.94;0.80;;;;;;;16.76;61.16;100328.53;2346625;68;20223;-80
2021/10/07 13:54:58;;;;;;;1.36;0.84;;;;;;;16.71;61.59;100334.75;2339263;68;20251;-81
2021/10/07 13:58:01;;;;;;;1.21;0.80;;;;;;;16.60;61.79;100332.25;2346889;68;20181;-80
2021/10/07 14:01:07;;;;;;;2.25;1.05;;;;;;;16.51;62.22;100329.72;2341878;66;47242;-80
2021/10/07 14:04:10;;;;;;;3.22;0.80;;;;;;;16.44;60.96;100333.34;2343928;68;20166;-79
2021/10/07 14:07:14;;;;;;;2.78;1.00;;;;;;;16.41;61.81;100330.75;2339723;68;20159;-80
2021/10/07 14:10:18;;;;;;;1.14;0.99;;;;;;;16.41;63.50;100331.63;2349976;68;20190;-81
2021/10/07 14:13:20;;;;;;;2.08;1.05;;;;;;;16.40;63.75;100340.38;2350832;68;20154;-81
2021/10/07 14:16:23;;;;;;;1.95;0.80;;;;;;;16.42;64.15;100337.72;2348822;66;47721;-80
2021/10/07 14:19:30;;;;;;;2.13;0.80;;;;;;;16.41;64.15;100334.25;2346505;68;20213;-80
2021/10/07 14:22:34;;;;;;;1.92;0.90;;;;;;;16.42;63.42;100335.97;2344358;68;20175;-80
2021/10/07 14:25:40;;;;;;;2.67;1.06;;;;;;;16.43;63.07;100344.69;2343325;68;20299;-80
2021/10/07 14:28:43;;;;;;;1.67;0.80;;;;;;;16.40;62.50;100340.38;2339602;68;20133;-80
2021/10/07 14:31:47;;;;;;;1.41;0.91;;;;;;;16.37;62.90;100344.78;2340094;68;20171;-80
2021/10/07 14:34:51;;;;;;;3.79;1.09;;;;;;;16.33;63.42;100331.69;2340085;68;20669;-80
2021/10/07 14:37:54;;;;;;;1.96;1.00;;;;;;;16.29;63.43;100334.38;2343621;68;20150;-80
2021/10/07 14:40:57;;;;;;;2.59;1.10;;;;;;;16.23;62.91;100340.59;2345352;68;20261;-80
2021/10/07 14:44:00;;;;;;;0.94;0.71;;;;;;;16.19;63.99;100345.88;2342920;68;20582;-80
2021/10/07 14:47:03;;;;;;;3.45;1.21;;;;;;;16.17;64.79;100338.03;2346046;68;20467;-80
2021/10/07 14:50:09;;;;;;;1.91;1.00;;;;;;;16.22;64.04;100336.22;2343185;68;20150;-80
2021/10/07 14:53:12;;;;;;;2.09;1.00;;;;;;;16.34;63.56;100337.84;2345229;68;20170;-80
2021/10/07 14:56:14;;;;;;;1.70;0.96;;;;;;;16.47;63.76;100336.78;2347144;68;20146;-79
2021/10/07 14:59:17;;;;;;;2.31;1.30;;;;;;;16.53;63.37;100336.72;2337508;68;20234;-80
2021/10/07 15:02:20;;;;;;;2.05;1.10;;;;;;;16.54;62.59;100343.69;2343101;66;24828;-80
2021/10/07 15:05:23;;;;;;;1.17;0.90;;;;;;;16.55;63.16;100334.06;2346193;68;20150;-80
2021/10/07 15:08:25;;;;;;;2.58;0.77;;;;;;;16.49;62.84;100340.25;2342609;68;20146;-79
2021/10/07 15:11:28;;;;;;;1.52;0.80;;;;;;;16.39;63.14;100335.16;2343408;68;20495;-80
2021/10/07 15:14:32;;;;;;;0.85;0.82;;;;;;;16.25;62.86;100336.19;2340920;68;20202;-80
2021/10/07 15:17:36;;;;;;;1.40;0.80;;;;;;;16.13;63.18;100340.69;2341743;66;31147;-80
2021/10/07 15:20:45;;;;;;;1.34;0.80;;;;;;;16.02;63.71;100343.47;2342309;68;20250;-80
2021/10/07 15:23:48;;;;;;;3.17;0.80;;;;;;;15.92;63.76;100336.56;2341816;68;20107;-80
2021/10/07 15:26:51;;;;;;;1.40;1.00;;;;;;;15.84;64.08;100346.28;2344606;68;20214;-80
2021/10/07 15:29:53;;;;;;;1.77;0.85;;;;;;;15.79;64.90;100345.44;2343005;68;20136;-80
2021/10/07 15:32:56;;;;;;;1.14;0.80;;;;;;;15.74;65.45;100355.09;2343320;66;31443;-80
2021/10/07 15:35:59;;;;;;;2.70;1.10;;;;;;;15.70;65.98;100343.78;2341321;68;20233;-79
2021/10/07 15:39:03;;;;;;;1.44;0.98;;;;;;;15.65;66.52;100349.09;2343168;68;20245;-79
2021/10/07 15:42:06;;;;;;;2.95;0.90;;;;;;;15.61;66.29;100354.34;2344497;68;20145;-80
2021/10/07 15:45:10;;;;;;;2.04;1.00;;;;;;;15.61;65.85;100354.34;2343678;68;20206;-81
2021/10/07 15:48:13;;;;;;;1.58;0.93;;;;;;;15.58;65.68;100357.81;2347527;68;20150;-80
2021/10/07 15:51:16;;;;;;;1.89;1.20;;;;;;;15.55;65.89;100355.25;2339772;68;20185;-80
2021/10/07 15:54:21;;;;;;;6.22;3.92;;;;;;;15.49;65.93;100350.06;2346367;68;20158;-81
2021/10/07 15:57:24;;;;;;;7.03;3.70;;;;;;;15.38;66.61;100352.78;2346431;68;20244;-80
2021/10/07 16:00:29;;;;;;;5.78;3.15;;;;;;;15.30;67.38;100354.59;2345001;68;20154;-79
2021/10/07 16:03:33;;;;;;;5.39;2.35;;;;;;;15.24;67.50;100356.38;2345594;68;20175;-80
2021/10/07 16:06:36;;;;;;;3.92;1.84;;;;;;;15.13;66.97;100355.63;2345503;68;20167;-80
2021/10/07 16:09:39;;;;;;;3.40;1.00;;;;;;;14.99;67.44;100355.69;2338494;68;20158;-81
2021/10/07 16:12:42;;;;;;;2.03;0.98;;;;;;;14.87;67.81;100361.88;2344600;68;20130;-81
2021/10/07 16:19:17;;;;;;;1.70;0.91;;;;;;;14.62;68.42;100361.16;2338515;68;20207;-80
2021/10/07 16:23:08;;;;;;;2.60;1.10;;;;;;;14.44;69.17;100367.34;2341218;68;20235;-81
2021/10/07 16:26:31;;;;;;;3.19;1.10;;;;;;;14.29;69.51;100369.97;2333003;68;20167;-81
2021/10/07 16:30:18;;;;;;;3.60;0.84;;;;;;;14.12;70.09;100363.94;2334153;68;20175;-81
2021/10/07 16:33:46;;;;;;;0.84;0.80;;;;;;;13.84;72.38;100369.25;2332769;68;20151;-81
2021/10/07 16:36:49;;;;;;;1.98;0.70;;;;;;;13.58;74.33;100376.22;2332566;68;20675;-81
2021/10/07 16:39:52;;;;;;;0.84;0.76;;;;;;;13.35;75.44;100373.66;2332789;68;20155;-80
2021/10/07 16:42:54;;;;;;;5.29;0.91;;;;;;;13.18;76.42;100365.81;2333867;68;20150;-80
2021/10/07 16:46:10;;;;;;;1.84;0.88;;;;;;;13.04;77.46;100371.84;2330699;67;35170;-80
2021/10/07 16:49:12;;;;;;;0.94;0.73;;;;;;;12.87;78.03;100371.81;2332923;68;20183;-80
2021/10/07 16:52:16;;;;;;;3.45;0.95;;;;;;;12.71;78.68;100371.78;2332275;68;20626;-81
2021/10/07 16:55:19;;;;;;;2.50;1.00;;;;;;;12.55;79.31;100379.53;2333278;68;20511;-80
2021/10/07 16:58:25;;;;;;;1.33;0.80;;;;;;;12.45;79.55;100386.47;2332025;68;20153;-81
2021/10/07 17:01:28;;;;;;;3.36;1.00;;;;;;;12.32;79.98;100376.84;2331133;65;25625;-81
2021/10/07 17:04:31;;;;;;;3.22;1.38;;;;;;;12.18;80.63;100381.97;2333560;68;20155;-81
2021/10/07 17:07:34;;;;;;;2.55;0.93;;;;;;;12.10;80.99;100383.69;2331806;68;20688;-80
2021/10/07 17:10:37;;;;;;;2.15;0.99;;;;;;;11.96;81.50;100386.22;2331455;68;20142;-80
2021/10/07 17:13:39;;;;;;;3.65;1.20;;;;;;;11.87;81.83;100393.97;2327485;68;20632;-80
2021/10/07 17:16:42;;;;;;;1.92;1.19;;;;;;;11.72;82.40;100386.03;2332940;65;33151;-81
2021/10/07 17:19:46;;;;;;;4.39;1.73;;;;;;;11.64;82.92;100393.75;2331894;68;20154;-80
2021/10/07 17:22:49;;;;;;;4.45;1.90;;;;;;;11.54;83.36;100401.50;2330263;68;20147;-81
2021/10/07 17:25:52;;;;;;;4.06;1.76;;;;;;;11.43;83.63;100391.88;2331309;68;20982;-82
2021/10/07 17:28:54;;;;;;;3.69;2.29;;;;;;;11.30;84.01;100395.22;2332357;68;20862;-80
2021/10/07 17:32:02;;;;;;;4.24;2.04;;;;;;;11.25;84.39;100401.25;2330000;66;20633;-80
2021/10/07 17:35:06;;;;;;;2.74;1.58;;;;;;;11.18;84.78;100402.94;2330243;68;20181;-80
2021/10/07 17:38:09;;;;;;;2.26;1.54;;;;;;;11.11;84.90;100411.50;2329239;68;20167;-80
2021/10/07 17:41:12;;;;;;;3.28;1.64;;;;;;;11.02;85.36;100409.69;2332155;68;20159;-81
2021/10/07 17:44:15;;;;;;;2.41;1.35;;;;;;;10.96;85.59;100413.97;2333645;68;20226;-81
2021/10/07 17:47:18;;;;;;;1.67;1.17;;;;;;;10.88;85.79;100419.94;2331996;68;20194;-81
2021/10/07 17:50:21;;;;;;;4.36;1.50;;;;;;;10.79;85.92;100417.25;2327625;68;20220;-81
2021/10/07 17:53:24;;;;;;;1.59;1.40;;;;;;;10.74;86.11;100428.44;2332341;68;20151;-80
2021/10/07 17:56:26;;;;;;;1.56;1.20;;;;;;;10.67;86.17;100424.03;2329995;68;21146;-80
2021/10/07 17:59:29;;;;;;;1.41;1.31;;;;;;;10.60;86.17;100430.88;2333441;68;20171;-82
2021/10/07 18:02:31;;;;;;;1.19;1.10;;;;;;;10.54;86.15;100436.84;2329521;66;29783;-80
2021/10/07 18:05:40;;;;;;;1.72;1.29;;;;;;;10.44;86.36;100432.41;2332415;68;20163;-80
2021/10/07 18:08:42;;;;;;;2.74;1.36;;;;;;;10.38;86.56;100434.03;2332258;68;20160;-81
2021/10/07 18:11:45;;;;;;;3.65;2.42;;;;;;;10.33;86.85;100439.19;2333202;68;20147;-80
2021/10/07 18:14:47;;;;;;;3.58;1.50;;;;;;;10.25;86.78;100436.50;2333422;68;20243;-84
2021/10/07 18:17:50;;;;;;;2.51;1.27;;;;;;;10.19;86.68;100441.56;2332771;66;29260;-80
2021/10/07 18:20:53;;;;;;;3.34;1.20;;;;;;;10.10;86.96;100436.25;2333999;68;20172;-80
2021/10/07 18:23:57;;;;;;;3.67;1.30;;;;;;;10.04;87.17;100443.91;2336499;68;20099;-82
2021/10/07 18:26:59;;;;;;;2.05;1.19;;;;;;;9.97;87.33;100445.56;2338231;68;20214;-80
2021/10/07 18:30:03;;;;;;;2.35;1.40;;;;;;;9.95;87.64;100438.63;2328145;68;20151;-80
2021/10/07 18:33:06;;;;;;;2.35;1.27;;;;;;;9.90;87.43;100446.34;2333825;66;30478;-80
2021/10/07 18:36:08;;;;;;;3.97;1.80;;;;;;;9.83;87.30;100443.59;2333990;68;20227;-80
2021/10/07 18:39:11;;;;;;;2.76;1.56;;;;;;;9.80;87.54;100444.44;2334101;68;20633;-80
2021/10/07 18:42:14;;;;;;;2.41;1.58;;;;;;;9.76;87.47;100440.06;2334942;68;20155;-80
2021/10/07 18:45:18;;;;;;;1.77;1.39;;;;;;;9.70;87.53;100445.16;2333309;68;21169;-80
2021/10/07 18:48:22;;;;;;;4.10;1.79;;;;;;;9.63;87.64;100451.06;2331757;66;25727;-80
2021/10/07 18:51:25;;;;;;;2.26;1.50;;;;;;;9.58;88.01;100456.19;2333549;68;20176;-80
2021/10/07 18:54:28;;;;;;;2.06;1.58;;;;;;;9.54;88.19;100456.13;2335515;68;20256;-80
2021/10/07 18:57:31;;;;;;;4.25;2.11;;;;;;;9.48;88.33;100456.88;2332405;68;20697;-80
2021/10/07 19:00:36;;;;;;;5.68;2.14;;;;;;;9.43;88.52;100449.88;2334125;65;26476;-80
2021/10/07 19:03:41;;;;;;;2.09;1.48;;;;;;;9.38;88.46;100449.81;2332166;68;20171;-80
2021/10/07 19:06:43;;;;;;;1.76;1.56;;;;;;;9.32;88.59;100449.66;2333320;68;20245;-80
2021/10/07 19:09:46;;;;;;;2.22;1.73;;;;;;;9.29;88.76;100452.22;2331415;68;20166;-80
2021/10/07 19:12:49;;;;;;;1.94;1.49;;;;;;;9.26;88.86;100449.56;2327671;68;20243;-80
2021/10/07 19:15:53;;;;;;;3.75;1.76;;;;;;;9.25;89.00;100443.53;2330162;66;21913;-80
2021/10/07 19:18:56;;;;;;;5.81;1.56;;;;;;;9.25;89.12;100451.28;2333840;68;20536;-80
2021/10/07 19:21:59;;;;;;;3.49;1.60;;;;;;;9.24;88.78;100456.44;2331449;68;20291;-80
2021/10/07 19:25:03;;;;;;;2.08;1.40;;;;;;;9.16;88.53;100447.69;2327904;68;20287;-80
2021/10/07 19:28:07;;;;;;;3.47;1.76;;;;;;;9.14;88.33;100464.88;2334025;68;20235;-80
2021/10/07 19:31:11;;;;;;;2.06;1.60;;;;;;;9.09;88.09;100459.63;2330875;65;30701;-80
2021/10/07 19:34:19;;;;;;;2.65;1.95;;;;;;;9.03;87.97;100459.53;2336581;68;20410;-81
2021/10/07 19:37:21;;;;;;;4.33;1.72;;;;;;;8.98;88.22;100458.56;2342970;68;20237;-81
2021/10/07 19:40:24;;;;;;;5.10;1.83;;;;;;;8.94;88.36;100465.38;2339841;68;20138;-80
2021/10/07 19:43:27;;;;;;;3.42;1.60;;;;;;;8.91;88.44;100462.75;2331482;68;20155;-81
2021/10/07 19:46:33;;;;;;;2.64;1.84;;;;;;;8.87;88.22;100470.44;2335818;68;20259;-81
2021/10/07 19:49:36;;;;;;;3.03;2.09;;;;;;;8.81;88.31;100472.91;2334481;68;20342;-81
2021/10/07 19:52:39;;;;;;;4.04;1.80;;;;;;;8.77;88.31;100477.13;2346848;68;20354;-81
2021/10/07 19:55:43;;;;;;;3.99;1.76;;;;;;;8.71;87.95;100479.59;2335384;68;20319;-81
2021/10/07 19:58:46;;;;;;;2.96;2.00;;;;;;;8.67;88.27;100478.66;2343900;68;20202;-80
2021/10/07 20:01:48;;;;;;;3.13;1.94;;;;;;;8.68;88.62;100480.41;2335919;66;36554;-80
2021/10/07 20:04:55;;;;;;;3.86;2.08;;;;;;;8.65;88.75;100485.53;2341750;68;20131;-80
2021/10/07 20:07:58;;;;;;;3.22;2.16;;;;;;;8.65;88.79;100482.94;2337691;68;20334;-81
2021/10/07 20:11:02;;;;;;;2.47;2.17;;;;;;;8.62;88.64;100484.59;2338084;68;20311;-81
2021/10/07 20:14:05;;;;;;;4.28;2.63;;;;;;;8.55;88.25;100485.28;2344885;68;20296;-80
2021/10/07 20:17:08;;;;;;;3.22;2.38;;;;;;;8.53;88.52;100487.84;2333649;68;20263;-81
2021/10/07 20:20:11;;;;;;;3.26;2.44;;;;;;;8.51;88.61;100480.91;2335337;68;20399;-81
2021/10/07 20:23:14;;;;;;;3.26;2.56;;;;;;;8.49;88.75;100491.22;2336437;68;20343;-80
2021/10/07 20:26:17;;;;;;;5.10;3.61;;;;;;;8.44;88.96;100483.38;2333488;68;20378;-81
2021/10/07 20:29:19;;;;;;;5.88;4.46;;;;;;;8.42;89.22;100492.78;2334596;68;20288;-81
2021/10/07 20:32:22;;;;;;;6.03;4.06;;;;;;;8.40;89.40;100488.41;2339801;65;29293;-81
2021/10/07 20:38:29;;;;;;;4.80;3.58;;;;;;;8.36;89.07;100490.06;2348208;68;20247;-82
2021/10/07 20:41:32;;;;;;;6.56;4.03;;;;;;;8.34;89.23;100486.59;2343091;68;20244;-82
2021/10/07 20:44:36;;;;;;;6.66;4.35;;;;;;;8.33;89.24;100479.63;2344786;68;20283;-82
2021/10/07 20:47:39;;;;;;;6.34;3.79;;;;;;;8.31;89.48;100486.50;2344003;66;35928;-81
2021/10/07 20:50:42;;;;;;;6.25;3.91;;;;;;;8.30;89.38;100494.22;2337937;68;20281;-81
2021/10/07 20:53:45;;;;;;;6.94;3.58;;;;;;;8.26;89.26;100485.53;2340298;68;20303;-81
2021/10/07 20:56:49;;;;;;;6.46;3.66;;;;;;;8.22;89.15;100487.97;2346285;68;20243;-81
2021/10/07 20:59:51;;;;;;;5.19;3.63;;;;;;;8.21;89.18;100479.34;2339891;68;20340;-81
2021/10/07 21:02:55;;;;;;;4.49;3.25;;;;;;;8.22;89.27;100485.41;2345493;66;40697;-81
2021/10/07 21:05:57;;;;;;;5.66;3.39;;;;;;;8.21;89.41;100488.81;2344406;68;20295;-82
2021/10/07 21:09:00;;;;;;;4.65;3.01;;;;;;;8.18;89.43;100490.50;2338366;68;20295;-81
2021/10/07 21:12:03;;;;;;;4.59;3.00;;;;;;;8.18;89.58;100487.03;2337741;68;20312;-81
2021/10/07 21:15:08;;;;;;;5.35;2.97;;;;;;;8.12;89.62;100481.75;2338052;68;20817;-81
2021/10/07 21:18:11;;;;;;;5.71;2.86;;;;;;;8.09;89.42;100481.69;2338362;68;20279;-81
2021/10/07 21:21:14;;;;;;;5.24;3.24;;;;;;;8.02;89.31;100485.81;2336493;68;20275;-81
2021/10/07 21:24:17;;;;;;;5.34;2.96;;;;;;;8.04;89.53;100480.66;2321702;68;20304;-81
2021/10/07 21:27:21;;;;;;;6.16;2.85;;;;;;;8.00;89.48;100484.03;2338046;68;20287;-81
2021/10/07 21:30:24;;;;;;;4.13;2.69;;;;;;;7.98;89.55;100488.28;2332003;68;20311;-81
2021/10/07 21:33:27;;;;;;;3.71;2.47;;;;;;;7.93;89.62;100488.19;2332553;68;20281;-81
2021/10/07 21:36:34;;;;;;;7.04;3.33;;;;;;;7.91;89.80;100489.00;2337212;68;20275;-81
2021/10/07 21:39:36;;;;;;;5.38;3.88;;;;;;;7.86;89.92;100481.97;2343613;68;20244;-81
2021/10/07 21:42:39;;;;;;;4.84;3.14;;;;;;;7.84;89.97;100487.97;2338968;68;20337;-81
2021/10/07 21:45:45;;;;;;;4.81;3.33;;;;;;;7.81;90.10;100482.72;2339842;68;20351;-81
2021/10/07 21:48:50;;;;;;;3.59;3.04;;;;;;;7.80;90.24;100479.25;2340776;68;20334;-81
2021/10/07 21:51:53;;;;;;;4.18;3.09;;;;;;;7.79;90.41;100471.47;2331403;68;20295;-81
2021/10/07 21:54:56;;;;;;;5.71;2.86;;;;;;;7.75;90.03;100474.81;2335853;68;20295;-81
2021/10/07 21:57:58;;;;;;;5.28;3.21;;;;;;;7.70;89.75;100477.28;2335391;68;20481;-81
2021/10/07 22:01:02;;;;;;;4.85;3.17;;;;;;;7.67;89.73;100476.34;2333761;68;20278;-81
2021/10/07 22:04:06;;;;;;;5.38;3.17;;;;;;;7.67;89.51;100484.97;2342628;68;20437;-81
2021/10/07 22:07:16;;;;;;;3.65;2.94;;;;;;;7.64;89.33;100482.31;2337595;68;20267;-81
2021/10/07 22:10:19;;;;;;;4.06;3.24;;;;;;;7.61;89.27;100477.06;2340145;68;20280;-81
2021/10/07 22:13:22;;;;;;;4.79;3.06;;;;;;;7.57;89.22;100483.00;2343186;68;20290;-81
2021/10/07 22:16:27;;;;;;;4.41;2.84;;;;;;;7.51;89.27;100478.53;2334618;68;20283;-81
2021/10/07 22:19:32;;;;;;;3.19;2.31;;;;;;;7.47;89.56;100476.72;2338635;68;20312;-81
2021/10/07 22:22:35;;;;;;;4.46;2.81;;;;;;;7.47;89.80;100483.59;2333163;68;20322;-81
2021/10/07 22:25:40;;;;;;;3.03;2.67;;;;;;;7.44;89.99;100475.75;2339187;68;20267;-81
2021/10/07 22:28:49;;;;;;;4.41;2.65;;;;;;;7.41;89.94;100475.69;2338404;68;20320;-81
2021/10/07 22:31:52;;;;;;;3.61;2.85;;;;;;;7.38;90.08;100480.78;2334441;68;20342;-81
2021/10/07 22:34:56;;;;;;;4.01;2.38;;;;;;;7.34;90.11;100484.09;2334930;68;20283;-81
2021/10/07 22:38:09;;;;;;;6.96;2.51;;;;;;;7.30;89.95;100487.44;2334899;68;20300;-81
2021/10/07 22:41:12;;;;;;;4.04;2.89;;;;;;;7.26;89.95;100481.31;2340329;68;20264;-81
2021/10/07 22:44:29;;;;;;;3.91;2.67;;;;;;;7.22;90.01;100479.50;2337924;68;20338;-81
2021/10/07 22:47:34;;;;;;;2.91;2.61;;;;;;;7.18;89.96;100478.56;2338623;66;59089;-82
2021/10/07 22:50:58;;;;;;;3.56;2.59;;;;;;;7.17;90.08;100478.50;2340547;68;20313;-81
2021/10/07 22:57:53;;;;;;;3.14;2.39;;;;;;;7.12;90.03;100480.06;2345169;68;20232;-81
2021/10/07 23:05:22;;;;;;;3.30;2.82;;;;;;;7.06;89.68;100479.94;2337303;68;20401;-81
2021/10/07 23:09:39;;;;;;;3.03;2.63;;;;;;;6.99;89.70;100478.88;2343769;68;20163;-81
2021/10/07 23:18:31;;;;;;;3.47;2.55;;;;;;;6.89;89.55;100485.50;2340876;68;20385;-81
2021/10/07 23:35:53;;;;;;;3.96;2.50;;;;;;;6.64;90.31;100473.63;2343760;68;20397;-81
2021/10/07 23:39:21;;;;;;;2.55;1.91;;;;;;;6.62;90.26;100474.38;2340824;68;20243;-81
